Terminal Aerodrome Forecast
Issued by NWS Cleveland, OH

Home | Current Version | Previous Version | Graphics & Text | Print | Product List | Glossary On
Versions: 1 2 3 4 5 6 7 8 9 10 11 12 13 14 15 16 17 18 19 20 21 22
000
FTUS41 KCLE 150500
TAFYNG
TAF
KYNG 150520Z 1506/1606 VRB03KT P6SM SKC
     FM151000 00000KT P6SM FEW100
      TEMPO 1510/1513 4SM BR
     FM151400 21008KT P6SM SCT100 BKN250
     FM152100 21008KT P6SM BKN060 OVC100
     FM160500 06004KT P6SM -RA OVC040=

USA.gov is the U.S. government's official web portal to all federal, state and local government web resources and services.